Time;durP1;ratioP1;P1;durP2;ratioP2;P2;SDS_P1;SDS_P2;PMS_P1;PMS_P2;Temp;Humidity;BMP_temperature;BMP_pressure;BME280_temperature;BME280_humidity;BME280_pressure;Samples;Min_cycle;Max_cycle;Signal;HPM_P1;HPM_P2
2022/11/22 00:01:00;;;;;;;9.80;5.60;;;6.30;99.90;;;;;;5028740;28;20179;-66
2022/11/22 00:03:25;;;;;;;7.40;5.33;;;6.30;1.00;;;;;;5029428;28;20290;-67
2022/11/22 00:05:51;;;;;;;10.13;6.37;;;6.30;99.90;;;;;;5029996;28;20167;-67
2022/11/22 00:08:17;;;;;;;8.27;6.53;;;6.50;1.00;;;;;;5029240;28;20195;-67
2022/11/22 00:10:42;;;;;;;6.00;5.47;;;6.50;1.00;;;;;;5029249;28;20171;-67
2022/11/22 00:13:08;;;;;;;10.17;6.67;;;6.50;1.00;;;;;;5029931;28;20163;-67
2022/11/22 00:15:34;;;;;;;8.77;6.37;;;6.60;1.00;;;;;;5030219;28;20175;-67
2022/11/22 00:18:00;;;;;;;10.67;5.70;;;6.80;23.30;;;;;;5029524;28;20500;-67
2022/11/22 00:20:26;;;;;;;12.67;6.03;;;6.90;1.00;;;;;;5029222;28;20541;-67
2022/11/22 00:22:52;;;;;;;7.97;5.70;;;7.00;99.50;;;;;;5029519;28;20875;-67
2022/11/22 00:25:18;;;;;;;5.57;4.90;;;7.00;1.00;;;;;;5029547;28;20412;-67
2022/11/22 00:27:44;;;;;;;9.37;5.97;;;7.10;32.00;;;;;;5029610;28;20530;-67
2022/11/22 00:30:10;;;;;;;13.97;8.90;;;7.10;93.10;;;;;;5029311;28;20407;-68
2022/11/22 00:32:35;;;;;;;10.07;6.27;;;7.20;92.50;;;;;;5029116;28;20585;-67
2022/11/22 00:35:01;;;;;;;7.67;5.60;;;7.20;99.90;;;;;;5029410;28;20406;-67
2022/11/22 00:37:27;;;;;;;7.47;6.17;;;7.20;99.90;;;;;;5028993;28;20522;-67
2022/11/22 00:39:53;;;;;;;10.17;6.77;;;7.20;2.70;;;;;;5029373;28;20591;-67
2022/11/22 00:42:18;;;;;;;8.40;5.53;;;7.20;1.00;;;;;;5028528;28;20212;-67
2022/11/22 00:44:44;;;;;;;7.83;5.70;;;7.20;1.00;;;;;;5029743;28;20160;-67
2022/11/22 00:47:10;;;;;;;8.37;6.17;;;7.10;1.00;;;;;;5029651;28;20175;-67
2022/11/22 00:49:35;;;;;;;6.90;5.20;;;7.10;1.00;;;;;;5029462;28;20188;-67
2022/11/22 00:52:01;;;;;;;10.80;5.27;;;7.00;99.90;;;;;;5028032;28;20199;-67
2022/11/22 00:54:27;;;;;;;13.90;6.20;;;7.10;1.00;;;;;;5030149;28;20293;-67
2022/11/22 00:56:52;;;;;;;9.00;6.30;;;7.10;1.00;;;;;;5033328;28;20240;-67
2022/11/22 00:59:18;;;;;;;9.00;6.67;;;7.10;1.00;;;;;;5033245;28;20195;-67
2022/11/22 01:01:44;;;;;;;7.77;6.13;;;7.00;99.90;;;;;;5032221;28;20168;-67
2022/11/22 01:04:09;;;;;;;7.47;5.83;;;7.00;1.00;;;;;;5033516;28;20298;-67
2022/11/22 01:06:35;;;;;;;6.13;5.63;;;7.00;1.00;;;;;;5033382;28;20652;-66
2022/11/22 01:09:01;;;;;;;9.80;6.53;;;7.00;1.00;;;;;;5032926;28;20299;-67
2022/11/22 01:11:26;;;;;;;6.77;6.07;;;7.10;1.00;;;;;;5032563;28;20266;-67
2022/11/22 01:13:52;;;;;;;13.33;8.07;;;7.10;1.00;;;;;;5032921;28;20188;-67
2022/11/22 01:16:18;;;;;;;16.83;6.50;;;7.10;1.00;;;;;;5033124;28;20486;-67
2022/11/22 01:18:44;;;;;;;10.83;6.30;;;7.10;1.00;;;;;;5033083;28;20191;-66
2022/11/22 01:21:10;;;;;;;10.03;5.50;;;7.10;1.00;;;;;;5032796;28;20408;-65
2022/11/22 01:23:36;;;;;;;9.60;6.03;;;7.10;99.90;;;;;;5032216;28;20517;-65
2022/11/22 01:26:06;;;;;;;7.60;6.53;;;7.10;1.00;;;;;;5033300;28;20683;-65
2022/11/22 01:28:32;;;;;;;9.57;5.43;;;7.10;1.00;;;;;;5032653;28;20418;-66
2022/11/22 01:30:57;;;;;;;6.07;5.40;;;7.00;80.80;;;;;;5032563;28;20852;-66
2022/11/22 01:33:23;;;;;;;6.30;5.70;;;7.00;99.90;;;;;;5033370;28;20168;-66
2022/11/22 01:35:49;;;;;;;9.00;6.80;;;6.90;1.00;;;;;;5032859;28;20639;-66
2022/11/22 01:38:14;;;;;;;7.53;5.10;;;6.90;1.00;;;;;;5032222;28;20278;-66
2022/11/22 01:40:40;;;;;;;7.90;5.03;;;7.10;99.90;;;;;;5032399;28;20163;-67
2022/11/22 01:43:18;;;;;;;10.27;6.07;;;7.10;1.00;;;;;;5032622;28;20199;-66
2022/11/22 01:45:51;;;;;;;8.97;5.10;;;7.20;38.20;;;;;;5032587;28;20535;-66
2022/11/22 01:48:19;;;;;;;7.40;5.23;;;7.20;50.40;;;;;;5032401;28;20422;-67
2022/11/22 01:50:49;;;;;;;9.00;5.63;;;7.20;1.00;;;;;;5031733;28;20565;-66
2022/11/22 01:53:20;;;;;;;6.20;5.30;;;7.10;1.00;;;;;;5032119;28;20796;-65
2022/11/22 01:55:48;;;;;;;6.20;5.60;;;7.20;1.00;;;;;;5032744;28;20907;-66
2022/11/22 01:58:14;;;;;;;6.60;5.73;;;7.00;99.90;;;;;;5032377;28;20438;-65
2022/11/22 02:00:42;;;;;;;9.73;7.00;;;7.00;1.00;;;;;;5031526;28;20509;-66
2022/11/22 02:03:10;;;;;;;7.00;5.03;;;7.00;1.00;;;;;;5032336;28;20515;-65
2022/11/22 02:05:36;;;;;;;6.93;5.23;;;7.10;99.90;;;;;;5032147;28;20453;-66
2022/11/22 02:08:08;;;;;;;10.50;6.50;;;7.20;99.90;;;;;;5031752;28;20426;-66
2022/11/22 02:10:39;;;;;;;6.73;5.03;;;7.30;1.00;;;;;;5031294;28;20167;-66
2022/11/22 02:13:06;;;;;;;9.17;5.60;;;7.30;1.00;;;;;;5032327;28;20771;-65
2022/11/22 02:15:34;;;;;;;7.03;5.60;;;7.30;1.00;;;;;;5032297;28;20406;-66
2022/11/22 02:17:59;;;;;;;12.13;5.77;;;7.30;99.90;;;;;;5031746;28;20947;-66
2022/11/22 02:20:25;;;;;;;6.93;5.30;;;7.40;99.90;;;;;;5031379;28;20485;-67
2022/11/22 02:23:03;;;;;;;9.00;6.57;;;7.30;99.90;;;;;;5031336;28;20696;-66
2022/11/22 02:25:42;;;;;;;19.30;5.67;;;7.40;99.90;;;;;;5032090;28;20167;-65
2022/11/22 02:28:11;;;;;;;6.23;5.60;;;7.40;1.00;;;;;;5031651;28;20489;-65
2022/11/22 02:30:38;;;;;;;8.70;5.73;;;7.40;1.00;;;;;;5030578;28;20407;-66
2022/11/22 02:33:04;;;;;;;7.20;5.50;;;7.40;99.90;;;;;;5031954;28;20409;-66
2022/11/22 02:35:30;;;;;;;16.57;6.17;;;7.30;1.00;;;;;;5032241;28;20399;-67
2022/11/22 02:38:04;;;;;;;11.43;6.17;;;7.40;1.00;;;;;;5031113;28;20721;-67
2022/11/22 02:40:35;;;;;;;9.70;5.43;;;7.40;1.00;;;;;;5030828;28;20414;-67
2022/11/22 02:43:04;;;;;;;6.63;5.33;;;7.40;99.90;;;;;;5031440;28;21325;-67
2022/11/22 02:45:30;;;;;;;10.83;5.47;;;7.30;1.00;;;;;;5031339;28;20406;-66
2022/11/22 02:48:07;;;;;;;7.80;5.20;;;7.30;99.90;;;;;;5031324;28;20476;-66
2022/11/22 02:50:34;;;;;;;6.63;5.40;;;7.30;1.00;;;;;;5030714;28;20175;-66
2022/11/22 02:53:00;;;;;;;7.20;4.93;;;7.40;99.90;;;;;;5030993;28;20410;-66
2022/11/22 02:55:25;;;;;;;6.40;5.80;;;7.40;1.00;;;;;;5031771;28;20421;-66
2022/11/22 02:57:51;;;;;;;10.07;5.63;;;7.40;1.00;;;;;;5031115;28;20184;-65
2022/11/22 03:00:17;;;;;;;18.23;5.67;;;7.40;1.00;;;;;;5031038;28;20160;-66
2022/11/22 03:02:42;;;;;;;11.93;5.80;;;7.40;99.90;;;;;;5030752;28;20199;-66
2022/11/22 03:05:08;;;;;;;10.40;5.17;;;7.40;1.00;;;;;;5031496;28;20195;-67
2022/11/22 03:07:34;;;;;;;7.07;5.27;;;7.40;1.00;;;;;;5030761;28;20261;-66
2022/11/22 03:10:00;;;;;;;8.90;5.87;;;7.40;1.00;;;;;;5031441;28;20191;-66
2022/11/22 03:12:25;;;;;;;8.10;6.00;;;7.30;1.00;;;;;;5030070;28;20168;-66
2022/11/22 03:14:51;;;;;;;9.87;5.70;;;7.40;17.60;;;;;;5030946;28;20230;-67
2022/11/22 03:17:17;;;;;;;10.20;5.60;;;7.50;1.00;;;;;;5030026;28;20207;-67
2022/11/22 03:19:42;;;;;;;6.40;5.80;;;7.50;59.50;;;;;;5031464;28;20196;-67
2022/11/22 03:22:08;;;;;;;7.17;5.77;;;7.50;99.90;;;;;;5029695;28;20624;-67
2022/11/22 03:24:34;;;;;;;11.87;5.83;;;7.50;90.80;;;;;;5030925;28;20675;-67
2022/11/22 03:26:59;;;;;;;18.30;6.07;;;7.50;85.80;;;;;;5029988;28;20171;-68
2022/11/22 03:29:25;;;;;;;11.37;6.20;;;7.50;99.90;;;;;;5030610;28;20207;-67
2022/11/22 03:31:50;;;;;;;13.83;6.00;;;7.60;99.90;;;;;;5029409;28;20206;-66
2022/11/22 03:34:16;;;;;;;9.37;6.07;;;7.60;59.70;;;;;;5030125;28;20184;-67
2022/11/22 03:36:42;;;;;;;7.20;5.60;;;7.60;61.40;;;;;;5030215;28;20631;-66
2022/11/22 03:39:08;;;;;;;10.50;5.17;;;7.60;69.70;;;;;;5029621;28;20215;-67
2022/11/22 03:41:34;;;;;;;7.70;6.07;;;7.60;76.10;;;;;;5029285;28;20188;-67
2022/11/22 03:43:59;;;;;;;6.23;5.50;;;7.60;55.90;;;;;;5030277;28;20462;-66
2022/11/22 03:46:25;;;;;;;9.53;5.57;;;7.60;35.40;;;;;;5029924;28;20171;-66
2022/11/22 03:48:51;;;;;;;16.97;5.90;;;7.70;1.00;;;;;;5030046;28;20274;-65
2022/11/22 03:51:16;;;;;;;11.30;5.87;;;7.60;1.00;;;;;;5029005;28;20172;-67
2022/11/22 03:53:42;;;;;;;9.30;5.90;;;7.60;66.00;;;;;;5031680;28;20172;-67
2022/11/22 03:56:08;;;;;;;9.37;5.90;;;7.70;99.90;;;;;;5031637;28;20253;-67
2022/11/22 03:58:34;;;;;;;7.33;5.50;;;7.60;99.90;;;;;;5032148;28;20659;-67
2022/11/22 04:01:00;;;;;;;7.30;6.60;;;7.60;99.90;;;;;;5030969;28;20495;-67
2022/11/22 04:03:26;;;;;;;7.73;6.13;;;7.60;99.90;;;;;;5029761;28;20302;-67
2022/11/22 04:05:51;;;;;;;8.90;6.20;;;7.60;99.90;;;;;;5029894;28;20172;-67
2022/11/22 04:08:17;;;;;;;8.73;5.63;;;7.60;99.90;;;;;;5029237;28;20266;-66
2022/11/22 04:10:43;;;;;;;8.83;6.07;;;7.50;99.90;;;;;;5029092;28;20644;-67
2022/11/22 04:13:08;;;;;;;8.30;5.80;;;7.50;99.90;;;;;;5029604;28;20194;-67
2022/11/22 04:15:35;;;;;;;8.30;6.43;;;7.50;99.90;;;;;;5029955;28;20179;-67
2022/11/22 04:18:01;;;;;;;8.80;5.83;;;7.50;99.90;;;;;;5029445;28;20175;-68
2022/11/22 04:23:19;;;;;;;9.90;6.30;;;7.50;99.90;;;;;;5029409;28;20256;-67
2022/11/22 04:25:50;;;;;;;17.80;5.67;;;7.50;99.90;;;;;;5029810;28;20402;-67
2022/11/22 04:28:24;;;;;;;12.50;6.43;;;7.50;99.90;;;;;;5029734;28;20479;-67
2022/11/22 04:33:35;;;;;;;12.20;5.90;;;7.40;99.90;;;;;;5029600;28;20469;-67
2022/11/22 04:36:00;;;;;;;8.77;6.27;;;7.40;99.90;;;;;;5029906;28;20502;-67
2022/11/22 04:38:27;;;;;;;16.43;6.47;;;7.30;99.90;;;;;;5028743;28;21080;-67
2022/11/22 04:40:53;;;;;;;10.20;6.70;;;7.40;99.90;;;;;;5028456;28;20179;-67
2022/11/22 04:46:12;;;;;;;10.90;6.33;;;7.30;99.90;;;;;;5030126;28;20313;-67
2022/11/22 04:48:38;;;;;;;9.70;6.30;;;7.30;99.90;;;;;;5029243;28;20427;-67
2022/11/22 04:53:49;;;;;;;16.00;8.30;;;7.20;99.90;;;;;;5029100;28;20661;-67
2022/11/22 04:56:15;;;;;;;9.87;6.90;;;7.10;1.00;;;;;;5029087;28;20414;-67
2022/11/22 04:58:40;;;;;;;8.90;6.60;;;7.20;99.90;;;;;;5029293;28;20207;-66
2022/11/22 05:01:06;;;;;;;11.37;7.63;;;7.20;99.90;;;;;;5028366;28;20179;-67
2022/11/22 05:03:32;;;;;;;7.20;6.50;;;7.20;99.90;;;;;;5028931;28;20290;-67
2022/11/22 05:06:01;;;;;;;8.53;7.77;;;7.20;99.90;;;;;;5029882;28;20183;-67
2022/11/22 05:08:27;;;;;;;18.93;11.90;;;7.20;99.90;;;;;;5029057;28;20430;-66
2022/11/22 05:10:55;;;;;;;13.47;9.03;;;7.20;99.90;;;;;;5028533;28;20403;-67
2022/11/22 05:13:22;;;;;;;22.10;8.13;;;7.20;99.90;;;;;;5029308;28;20179;-66
2022/11/22 05:15:50;;;;;;;13.57;7.57;;;7.10;99.90;;;;;;5029258;28;20455;-67
2022/11/22 05:18:17;;;;;;;14.80;7.57;;;7.10;99.90;;;;;;5028936;28;20438;-66
2022/11/22 05:20:43;;;;;;;13.33;6.70;;;7.00;99.90;;;;;;5028447;28;20414;-67
2022/11/22 05:25:53;;;;;;;9.03;7.30;;;6.90;1.00;;;;;;5027868;28;20233;-68
2022/11/22 05:28:18;;;;;;;11.70;6.63;;;6.70;1.00;;;;;;5032779;28;20789;-67
2022/11/22 05:30:44;;;;;;;11.07;6.70;;;6.80;1.00;;;;;;5033568;28;20711;-66
2022/11/22 05:33:10;;;;;;;11.87;7.90;;;6.80;99.90;;;;;;5028099;28;20299;-66
2022/11/22 05:35:35;;;;;;;14.27;7.23;;;6.70;1.00;;;;;;5019077;28;20259;-66
2022/11/22 05:38:01;;;;;;;10.50;6.97;;;6.70;1.00;;;;;;5006954;28;20191;-67
2022/11/22 05:40:27;;;;;;;11.37;7.57;;;6.80;1.00;;;;;;5008239;28;20509;-67
2022/11/22 05:42:52;;;;;;;11.63;7.47;;;6.90;1.00;;;;;;5012396;28;20211;-67
2022/11/22 05:45:18;;;;;;;10.73;7.40;;;6.90;1.00;;;;;;5010749;28;20211;-67
2022/11/22 05:47:45;;;;;;;12.70;7.20;;;6.90;1.00;;;;;;5009462;28;20172;-66
2022/11/22 05:50:11;;;;;;;7.93;6.43;;;6.90;1.00;;;;;;5009507;28;20416;-66
2022/11/22 05:52:37;;;;;;;15.90;7.90;;;6.90;1.00;;;;;;5008990;28;20399;-66
2022/11/22 05:55:03;;;;;;;9.03;7.63;;;7.00;1.00;;;;;;5010103;28;20407;-66
2022/11/22 05:57:31;;;;;;;14.80;7.80;;;7.00;1.00;;;;;;5009303;28;20165;-66
2022/11/22 05:59:57;;;;;;;12.00;7.40;;;7.00;1.00;;;;;;5009779;28;20427;-65
2022/11/22 06:02:23;;;;;;;8.10;6.80;;;7.00;1.00;;;;;;5006735;28;20651;-65
2022/11/22 06:04:48;;;;;;;10.10;8.07;;;7.10;1.00;;;;;;5006423;28;20368;-64
2022/11/22 06:07:14;;;;;;;11.33;6.70;;;7.00;1.00;;;;;;4998517;28;20196;-66
2022/11/22 06:09:40;;;;;;;8.73;7.50;;;7.00;1.00;;;;;;4994679;28;20649;-67
2022/11/22 06:12:06;;;;;;;10.90;7.40;;;6.90;1.00;;;;;;5005806;28;20184;-66
2022/11/22 06:14:32;;;;;;;21.70;10.40;;;6.90;1.00;;;;;;5003265;28;20200;-65
2022/11/22 06:16:57;;;;;;;31.07;11.37;;;6.80;1.00;;;;;;5002265;28;20438;-66
2022/11/22 06:19:23;;;;;;;33.23;11.00;;;6.90;1.00;;;;;;5003854;28;20197;-66
2022/11/22 06:21:49;;;;;;;19.77;11.03;;;7.00;1.00;;;;;;5004614;28;20495;-67
2022/11/22 06:24:14;;;;;;;12.77;9.60;;;7.00;1.00;;;;;;5004696;28;20208;-67
2022/11/22 06:26:40;;;;;;;10.00;8.40;;;7.10;1.00;;;;;;5006498;28;20278;-67
2022/11/22 06:29:06;;;;;;;22.73;9.00;;;7.10;1.00;;;;;;5006274;28;20196;-68
2022/11/22 06:31:32;;;;;;;14.83;8.80;;;7.10;1.00;;;;;;5005973;28;20239;-65
2022/11/22 06:33:59;;;;;;;17.93;8.23;;;7.10;1.00;;;;;;5006994;28;20423;-68
2022/11/22 06:36:30;;;;;;;12.53;7.87;;;7.20;1.00;;;;;;5008183;28;20196;-68
2022/11/22 06:38:56;;;;;;;10.47;8.60;;;7.20;1.00;;;;;;5006993;28;20761;-67
2022/11/22 06:41:25;;;;;;;10.10;8.13;;;7.20;1.00;;;;;;5007373;28;20494;-66
2022/11/22 06:43:52;;;;;;;11.93;8.77;;;7.20;1.00;;;;;;5008940;28;20657;-67
2022/11/22 06:46:20;;;;;;;14.03;8.10;;;7.20;1.00;;;;;;5008917;28;20407;-66
2022/11/22 06:48:46;;;;;;;11.90;8.37;;;7.20;1.00;;;;;;5007065;28;20431;-67
2022/11/22 06:51:18;;;;;;;25.43;9.60;;;7.20;1.00;;;;;;5007673;28;20404;-67
2022/11/22 06:53:44;;;;;;;12.87;8.03;;;7.20;1.00;;;;;;5007223;28;20462;-69
2022/11/22 06:56:18;;;;;;;26.20;10.57;;;7.30;1.00;;;;;;5008466;28;20450;-67
2022/11/22 06:58:45;;;;;;;24.30;10.10;;;8.50;1.00;;;;;;5008180;28;20522;-65
2022/11/22 07:01:13;;;;;;;32.40;10.80;;;8.00;99.90;;;;;;4995638;28;20495;-68
2022/11/22 07:03:40;;;;;;;22.10;8.50;;;7.70;99.90;;;;;;4988879;28;20460;-68
2022/11/22 07:06:08;;;;;;;20.43;9.83;;;7.60;99.90;;;;;;4988569;28;20404;-68
2022/11/22 07:08:34;;;;;;;11.23;7.50;;;7.50;99.90;;;;;;4987765;28;20428;-68
2022/11/22 07:11:04;;;;;;;17.53;10.17;;;7.50;99.90;;;;;;4987514;28;20400;-68
2022/11/22 07:13:30;;;;;;;13.93;7.40;;;7.40;1.00;;;;;;4988326;28;20446;-67
2022/11/22 07:15:57;;;;;;;12.67;8.23;;;7.50;99.90;;;;;;4991468;28;20844;-68
2022/11/22 07:18:23;;;;;;;13.37;8.33;;;7.40;1.00;;;;;;4995539;28;20431;-67
2022/11/22 07:20:49;;;;;;;13.93;7.90;;;7.40;1.00;;;;;;5006952;28;20406;-68
2022/11/22 07:23:14;;;;;;;11.00;8.73;;;7.40;1.00;;;;;;5007239;28;20447;-67
2022/11/22 07:25:47;;;;;;;20.10;8.80;;;7.40;1.00;;;;;;5008025;28;20586;-67
2022/11/22 07:28:14;;;;;;;17.13;9.50;;;7.40;1.00;;;;;;5008556;28;20275;-66
2022/11/22 07:30:41;;;;;;;13.23;9.20;;;7.40;1.00;;;;;;5009544;28;20403;-68
2022/11/22 07:33:07;;;;;;;13.53;9.13;;;7.30;1.00;;;;;;4995992;28;20611;-67
2022/11/22 07:35:34;;;;;;;25.00;11.70;;;7.30;1.00;;;;;;5007966;28;20439;-67
2022/11/22 07:37:59;;;;;;;15.63;8.80;;;7.40;1.00;;;;;;5006948;28;20546;-67
2022/11/22 07:40:25;;;;;;;11.33;8.90;;;7.40;1.00;;;;;;5005680;28;20538;-66
2022/11/22 07:42:51;;;;;;;12.37;8.40;;;7.40;1.00;;;;;;5009098;28;20251;-67
2022/11/22 07:45:16;;;;;;;12.83;10.50;;;7.20;1.00;;;;;;5010313;28;20336;-67
2022/11/22 07:47:42;;;;;;;15.37;10.67;;;7.30;1.00;;;;;;5009698;28;20166;-67
2022/11/22 07:50:08;;;;;;;14.77;8.87;;;7.40;1.00;;;;;;5009963;28;20608;-67
2022/11/22 07:52:34;;;;;;;13.80;9.27;;;7.50;1.00;;;;;;5008582;28;20672;-67
2022/11/22 07:54:59;;;;;;;10.07;8.67;;;7.50;1.00;;;;;;5009694;28;20399;-67
2022/11/22 07:57:25;;;;;;;23.53;8.50;;;7.50;1.00;;;;;;5009987;28;20176;-68
2022/11/22 07:59:51;;;;;;;16.23;9.30;;;7.50;1.00;;;;;;5009960;28;20211;-68
2022/11/22 08:02:16;;;;;;;92.17;16.90;;;7.50;1.00;;;;;;4996561;28;20254;-68
2022/11/22 08:04:42;;;;;;;27.03;10.00;;;7.50;1.00;;;;;;4989931;28;20291;-68
2022/11/22 08:07:08;;;;;;;20.33;8.67;;;7.50;1.00;;;;;;4989444;28;20177;-67
2022/11/22 08:09:34;;;;;;;19.00;10.17;;;7.50;1.00;;;;;;4990330;28;20189;-68
2022/11/22 08:12:00;;;;;;;13.20;8.20;;;7.60;1.00;;;;;;4989453;28;20191;-66
2022/11/22 08:14:26;;;;;;;12.43;8.60;;;7.60;1.00;;;;;;4990394;28;20412;-67
2022/11/22 08:16:52;;;;;;;11.10;8.23;;;7.60;1.00;;;;;;4990202;28;20412;-68
2022/11/22 08:19:19;;;;;;;8.67;7.50;;;7.60;1.00;;;;;;4990233;28;20197;-67
2022/11/22 08:21:45;;;;;;;10.50;8.17;;;7.60;1.00;;;;;;4989389;28;20416;-64
2022/11/22 08:24:11;;;;;;;13.20;8.40;;;7.70;1.00;;;;;;4988424;28;20478;-65
2022/11/22 08:26:37;;;;;;;12.70;8.23;;;7.70;1.00;;;;;;4990478;28;20408;-66
2022/11/22 08:29:07;;;;;;;9.83;8.23;;;7.80;1.00;;;;;;4990211;28;20185;-66
2022/11/22 08:31:33;;;;;;;8.73;7.50;;;7.80;1.00;;;;;;4989348;28;20276;-66
2022/11/22 08:33:58;;;;;;;9.40;7.67;;;7.80;1.00;;;;;;4989835;28;20420;-70
2022/11/22 08:36:25;;;;;;;9.93;6.80;;;7.90;99.90;;;;;;4989855;28;20404;-68
2022/11/22 08:38:51;;;;;;;9.53;7.10;;;7.90;99.90;;;;;;4989298;28;20216;-67
2022/11/22 08:41:17;;;;;;;21.10;9.43;;;7.90;99.90;;;;;;4989103;28;20499;-68
2022/11/22 08:43:42;;;;;;;53.27;12.30;;;7.90;99.90;;;;;;4989566;28;20209;-68
2022/11/22 08:46:08;;;;;;;20.60;9.30;;;8.00;99.90;;;;;;4989953;28;20240;-68
2022/11/22 08:48:36;;;;;;;16.67;8.33;;;7.90;99.90;;;;;;4989546;28;20558;-68
2022/11/22 08:51:04;;;;;;;12.67;8.00;;;8.00;99.90;;;;;;4989059;28;20173;-67
2022/11/22 08:53:35;;;;;;;11.30;9.00;;;8.10;99.90;;;;;;4989129;28;20420;-68
2022/11/22 08:56:02;;;;;;;9.23;7.83;;;8.10;99.90;;;;;;4990408;28;20415;-68
2022/11/22 08:58:32;;;;;;;24.23;8.80;;;8.20;99.90;;;;;;4989724;28;20951;-66
2022/11/22 09:01:06;;;;;;;11.83;7.53;;;8.10;99.90;;;;;;4997891;28;20834;-67
2022/11/22 09:03:34;;;;;;;11.20;7.20;;;8.20;99.90;;;;;;5009265;28;20944;-68
2022/11/22 09:06:04;;;;;;;12.00;7.20;;;8.10;99.90;;;;;;5009672;28;20445;-67
2022/11/22 09:08:31;;;;;;;11.67;7.60;;;8.20;99.90;;;;;;5008868;28;20430;-68
2022/11/22 09:11:10;;;;;;;11.77;7.37;;;8.20;99.90;;;;;;5008275;28;20461;-68
2022/11/22 09:13:36;;;;;;;17.17;7.63;;;8.20;99.90;;;;;;5009450;28;20407;-66
2022/11/22 09:16:07;;;;;;;16.47;8.23;;;8.20;99.90;;;;;;5011037;28;20745;-67
2022/11/22 09:18:33;;;;;;;14.23;7.23;;;8.20;99.90;;;;;;5012726;28;20434;-68
2022/11/22 09:21:01;;;;;;;11.70;8.23;;;8.20;99.90;;;;;;5012227;28;20956;-68
2022/11/22 09:23:27;;;;;;;14.90;7.43;;;8.20;99.90;;;;;;5012511;28;20800;-67
2022/11/22 09:26:02;;;;;;;13.27;7.40;;;8.30;99.90;;;;;;5012983;28;20758;-66
2022/11/22 09:28:28;;;;;;;9.93;7.60;;;8.30;99.90;;;;;;5012800;28;20430;-66
2022/11/22 09:31:04;;;;;;;13.10;7.33;;;8.30;99.90;;;;;;5011862;28;20468;-67
2022/11/22 09:33:31;;;;;;;12.33;7.80;;;8.30;99.90;;;;;;5012746;28;20421;-68
2022/11/22 09:36:01;;;;;;;13.20;7.17;;;8.20;99.90;;;;;;5012737;28;20463;-66
2022/11/22 09:38:28;;;;;;;13.23;7.20;;;8.20;99.90;;;;;;5012183;28;20516;-65
2022/11/22 09:40:53;;;;;;;11.20;7.23;;;8.20;99.90;;;;;;5011991;28;20415;-67
2022/11/22 09:43:41;;;;;;;13.27;7.33;;;8.20;99.90;;;;;;5012444;28;20473;-66
2022/11/22 09:46:17;;;;;;;10.87;8.70;;;8.30;99.90;;;;;;5012660;28;20160;-67
2022/11/22 09:49:03;;;;;;;11.23;7.97;;;8.20;99.90;;;;;;5012359;28;20438;-66
2022/11/22 09:51:38;;;;;;;13.83;7.00;;;8.20;99.90;;;;;;5000367;28;20462;-67
2022/11/22 09:54:23;;;;;;;19.17;7.73;;;8.20;99.90;;;;;;5011764;28;20468;-66
2022/11/22 09:56:53;;;;;;;21.67;9.00;;;8.30;99.90;;;;;;5012187;28;21309;-66
2022/11/22 09:59:27;;;;;;;23.63;7.80;;;8.30;99.90;;;;;;5012533;28;20485;-67
2022/11/22 10:02:07;;;;;;;17.20;7.20;;;8.30;99.90;;;;;;5011491;28;20543;-67
2022/11/22 10:04:39;;;;;;;20.27;8.73;;;8.30;99.90;;;;;;5012415;28;20593;-67
2022/11/22 10:07:21;;;;;;;16.93;8.23;;;8.30;99.90;;;;;;5011754;28;20553;-68
2022/11/22 10:09:50;;;;;;;13.00;6.67;;;8.30;99.90;;;;;;5012542;28;21264;-68
2022/11/22 10:12:16;;;;;;;25.07;7.50;;;8.30;99.90;;;;;;5011310;28;20419;-67
2022/11/22 10:14:47;;;;;;;17.43;8.27;;;8.40;99.90;;;;;;5012551;28;20415;-67
2022/11/22 10:17:50;;;;;;;25.37;8.50;;;8.40;99.90;;;;;;5012188;28;20187;-68
2022/11/22 10:20:23;;;;;;;29.27;9.73;;;8.50;99.90;;;;;;5011549;28;20482;-67
2022/11/22 10:22:49;;;;;;;30.57;8.80;;;8.50;99.90;;;;;;5011661;28;20506;-68
2022/11/22 10:25:21;;;;;;;20.67;7.73;;;8.50;99.90;;;;;;5012290;28;20407;-66
2022/11/22 10:27:57;;;;;;;16.73;8.37;;;8.60;99.90;;;;;;5011603;28;20429;-68
2022/11/22 10:30:24;;;;;;;18.73;7.00;;;8.60;77.10;;;;;;5011163;28;20740;-68
2022/11/22 10:33:03;;;;;;;16.73;6.07;;;8.50;1.00;;;;;;5010458;28;20450;-66
2022/11/22 10:35:50;;;;;;;15.20;7.17;;;8.60;1.00;;;;;;5011732;28;20414;-66
2022/11/22 10:38:37;;;;;;;11.80;7.10;;;8.60;1.00;;;;;;5011331;28;20442;-66
2022/11/22 10:41:22;;;;;;;13.70;7.07;;;8.60;1.00;;;;;;5010928;28;20438;-67
2022/11/22 10:43:56;;;;;;;12.70;7.00;;;8.70;1.00;;;;;;5011338;28;20463;-67
2022/11/22 10:46:40;;;;;;;21.83;7.50;;;8.70;1.00;;;;;;5011657;28;20483;-67
2022/11/22 10:49:45;;;;;;;24.53;6.57;;;8.70;1.00;;;;;;5011511;28;20423;-67
2022/11/22 10:52:25;;;;;;;14.83;6.20;;;8.80;99.90;;;;;;4976468;28;20426;-66
2022/11/22 10:55:41;;;;;;;16.80;7.30;;;8.70;1.00;;;;;;5011544;28;20419;-69
2022/11/22 10:58:32;;;;;;;38.80;7.70;;;8.80;99.90;;;;;;4977995;28;20439;-66
2022/11/22 11:01:02;;;;;;;72.57;12.10;;;8.90;99.90;;;;;;4973867;28;20527;-67
2022/11/22 11:03:43;;;;;;;17.70;5.00;;;8.90;1.00;;;;;;4991613;28;20451;-66
2022/11/22 11:06:14;;;;;;;54.10;9.07;;;8.80;99.90;;;;;;4991456;28;20416;-65
2022/11/22 11:08:45;;;;;;;20.60;4.33;;;8.80;99.90;;;;;;4991055;28;20416;-65
2022/11/22 11:11:13;;;;;;;22.10;6.10;;;8.80;99.90;;;;;;4990327;28;20478;-66
2022/11/22 11:14:03;;;;;;;51.73;8.30;;;8.80;1.00;;;;;;4991481;28;20945;-67
2022/11/22 11:16:32;;;;;;;29.70;5.40;;;8.80;1.00;;;;;;4990997;28;20780;-68
2022/11/22 11:19:10;;;;;;;15.13;3.60;;;8.80;99.90;;;;;;4991085;28;20432;-68
2022/11/22 11:21:36;;;;;;;23.53;4.90;;;8.80;1.00;;;;;;4990473;28;20847;-67
2022/11/22 11:24:02;;;;;;;19.27;3.53;;;8.70;1.00;;;;;;4990747;28;20463;-68
2022/11/22 11:26:33;;;;;;;23.13;3.63;;;8.80;99.90;;;;;;4991211;28;20830;-67
2022/11/22 11:29:31;;;;;;;15.17;3.87;;;8.80;99.90;;;;;;4991585;28;20428;-69
2022/11/22 11:32:19;;;;;;;6.57;2.57;;;8.80;1.00;;;;;;4989892;28;20889;-69
2022/11/22 11:34:56;;;;;;;18.77;3.77;;;8.80;1.00;;;;;;4991160;28;20554;-68
2022/11/22 11:37:32;;;;;;;7.23;2.60;;;8.90;1.00;;;;;;4990599;28;20427;-69
2022/11/22 11:39:57;;;;;;;8.53;2.90;;;9.00;1.00;;;;;;4990660;28;20450;-69
2022/11/22 11:42:29;;;;;;;9.07;2.87;;;9.00;1.00;;;;;;4989774;28;20412;-69
2022/11/22 11:45:23;;;;;;;11.87;4.97;;;8.90;99.90;;;;;;4990979;28;20291;-67
2022/11/22 11:47:49;;;;;;;21.23;5.73;;;9.00;99.90;;;;;;4990432;28;20431;-67
2022/11/22 11:50:24;;;;;;;35.57;7.43;;;8.90;99.90;;;;;;4990796;28;20854;-67
2022/11/22 11:52:53;;;;;;;33.97;6.17;;;8.90;99.90;;;;;;4989974;28;20184;-68
2022/11/22 11:55:19;;;;;;;28.47;4.63;;;9.00;99.90;;;;;;4990626;28;20404;-68
2022/11/22 11:57:45;;;;;;;43.37;6.50;;;8.90;99.90;;;;;;4990076;28;20404;-67
2022/11/22 12:00:34;;;;;;;11.87;3.30;;;8.90;99.90;;;;;;4993016;28;20885;-68
2022/11/22 12:03:04;;;;;;;10.40;3.50;;;8.90;99.90;;;;;;5010221;28;20723;-69
2022/11/22 12:05:32;;;;;;;18.37;2.70;;;8.90;99.90;;;;;;5010134;28;20407;-69
2022/11/22 12:08:00;;;;;;;13.53;4.40;;;8.90;99.90;;;;;;5009888;28;20442;-68
2022/11/22 12:10:33;;;;;;;6.30;2.30;;;8.80;99.90;;;;;;5009820;28;20889;-68
2022/11/22 12:13:23;;;;;;;5.80;2.20;;;8.90;99.90;;;;;;5009865;28;20465;-67
2022/11/22 12:16:09;;;;;;;12.67;3.13;;;8.90;99.90;;;;;;5009742;28;20415;-68
2022/11/22 12:18:38;;;;;;;19.23;4.17;;;9.00;99.90;;;;;;5010010;28;20633;-68
2022/11/22 12:21:12;;;;;;;13.13;3.00;;;9.00;99.90;;;;;;5008978;28;20751;-68
2022/11/22 12:24:11;;;;;;;6.90;2.30;;;9.10;99.90;;;;;;5009027;28;20512;-68
2022/11/22 12:26:37;;;;;;;9.47;2.40;;;9.00;99.90;;;;;;5008677;28;20781;-69
2022/11/22 12:29:03;;;;;;;10.67;2.40;;;9.00;33.20;;;;;;5004359;28;20473;-68
2022/11/22 12:31:48;;;;;;;6.27;1.70;;;9.00;1.00;;;;;;5003452;28;20255;-68
2022/11/22 12:34:25;;;;;;;8.80;3.00;;;8.90;1.00;;;;;;5008913;28;20761;-67
2022/11/22 12:37:09;;;;;;;4.93;1.97;;;8.90;1.00;;;;;;5009383;28;20502;-67
2022/11/22 12:39:36;;;;;;;4.37;2.00;;;8.90;1.00;;;;;;5004704;28;20477;-69
2022/11/22 12:42:13;;;;;;;11.33;2.47;;;8.80;1.00;;;;;;4999147;28;20838;-68
2022/11/22 12:44:48;;;;;;;8.00;2.23;;;8.80;1.00;;;;;;5009349;28;20466;-68
2022/11/22 12:47:20;;;;;;;3.90;2.03;;;8.80;1.00;;;;;;5009384;28;20445;-68
2022/11/22 12:50:08;;;;;;;23.40;3.90;;;8.80;1.00;;;;;;5009731;28;20506;-68
2022/11/22 12:52:43;;;;;;;18.17;2.60;;;8.80;1.00;;;;;;5011579;28;20466;-68
2022/11/22 12:55:23;;;;;;;10.30;2.60;;;8.80;1.00;;;;;;5005972;28;20434;-68
2022/11/22 12:58:15;;;;;;;35.77;4.03;;;8.90;1.00;;;;;;5010362;28;20443;-69
2022/11/22 13:01:13;;;;;;;7.57;2.47;;;8.90;1.00;;;;;;5008702;28;20434;-67
2022/11/22 13:03:49;;;;;;;6.47;2.27;;;8.90;1.00;;;;;;4984860;28;20475;-67
2022/11/22 13:06:22;;;;;;;4.93;1.37;;;8.90;1.00;;;;;;5011674;28;20454;-68
2022/11/22 13:09:10;;;;;;;11.03;2.20;;;8.80;1.00;;;;;;5009124;28;20435;-68
2022/11/22 13:11:44;;;;;;;6.83;1.70;;;8.80;1.00;;;;;;5012544;28;20907;-69
2022/11/22 13:14:16;;;;;;;11.30;3.67;;;8.80;1.00;;;;;;5013619;28;20895;-68
2022/11/22 13:16:42;;;;;;;6.60;1.90;;;8.80;1.00;;;;;;5012077;28;20497;-68
2022/11/22 13:19:13;;;;;;;4.37;1.77;;;8.70;1.00;;;;;;5013518;28;20941;-68
2022/11/22 13:22:07;;;;;;;4.23;1.60;;;8.70;1.00;;;;;;5012731;28;20418;-67